createdAt,value
2023-04-15T00:01:19.103Z,99956.00
2023-04-15T00:03:47.531Z,99956.09
2023-04-15T00:06:14.994Z,99960.06
2023-04-15T00:08:42.433Z,99951.41
2023-04-15T00:11:10.065Z,99947.94
2023-04-15T00:13:37.774Z,99939.59
2023-04-15T00:16:07.434Z,99936.94
2023-04-15T00:18:35.695Z,99936.53
2023-04-15T00:21:03.406Z,99932.53
2023-04-15T00:23:31.424Z,99933.19
2023-04-15T00:25:58.669Z,99916.03
2023-04-15T00:28:26.258Z,99917.34
2023-04-15T00:30:53.565Z,99919.56
2023-04-15T00:33:20.820Z,99916.00
2023-04-15T00:35:48.065Z,99917.47
2023-04-15T00:38:15.373Z,99924.13
2023-04-15T00:40:43.600Z,99915.09
2023-04-15T00:43:10.932Z,99913.63
2023-04-15T00:45:38.600Z,99916.00
2023-04-15T00:48:06.135Z,99911.91
2023-04-15T00:50:33.569Z,99911.75
2023-04-15T00:53:01.134Z,99904.38
2023-04-15T00:55:28.533Z,99904.84
2023-04-15T00:57:57.398Z,99910.06
2023-04-15T01:00:24.866Z,99904.56
2023-04-15T01:02:52.400Z,99899.16
2023-04-15T01:05:20.021Z,99898.38
2023-04-15T01:07:48.377Z,99903.66
2023-04-15T01:10:15.746Z,99904.66
2023-04-15T01:12:43.526Z,99902.28
2023-04-15T01:15:11.197Z,99888.03
2023-04-15T01:17:39.327Z,99886.41
2023-04-15T01:20:10.688Z,99874.84
2023-04-15T01:22:38.564Z,99887.09
2023-04-15T01:25:18.749Z,99876.84
2023-04-15T01:27:46.491Z,99881.28
2023-04-15T01:30:13.789Z,99875.13
2023-04-15T01:32:41.765Z,99878.97
2023-04-15T01:35:09.919Z,99879.69
2023-04-15T01:37:37.927Z,99887.28
2023-04-15T01:40:05.889Z,99882.06
2023-04-15T01:42:33.756Z,99885.88
2023-04-15T01:45:01.178Z,99886.56
2023-04-15T01:47:28.583Z,99880.53
2023-04-15T01:49:56.192Z,99889.22
2023-04-15T01:52:23.507Z,99898.97
2023-04-15T01:54:50.910Z,99903.16
2023-04-15T01:57:19.286Z,99902.25
2023-04-15T01:59:46.948Z,99900.41
2023-04-15T02:02:15.593Z,99899.44
2023-04-15T02:04:43.113Z,99911.69
2023-04-15T02:07:10.395Z,99903.03
2023-04-15T02:09:38.716Z,99908.34
2023-04-15T02:12:08.284Z,99907.41
2023-04-15T02:14:35.678Z,99910.13
2023-04-15T02:17:07.372Z,99920.94
2023-04-15T02:19:35.663Z,99925.38
2023-04-15T02:22:03.964Z,99919.31
2023-04-15T02:24:31.283Z,99931.50
2023-04-15T02:26:58.564Z,99937.84
2023-04-15T02:29:26.216Z,99938.19
2023-04-15T02:31:53.416Z,99944.50
2023-04-15T02:34:21.296Z,99935.44
2023-04-15T02:36:49.760Z,99931.91
2023-04-15T02:39:18.599Z,99944.66
2023-04-15T02:41:51.765Z,99943.84
2023-04-15T02:44:20.548Z,99952.91
2023-04-15T02:46:52.480Z,99955.81
2023-04-15T02:49:19.679Z,99963.25
2023-04-15T02:51:49.956Z,99973.09
2023-04-15T02:54:20.790Z,99967.78
2023-04-15T02:56:48.164Z,99963.25
2023-04-15T02:59:15.539Z,99978.75
2023-04-15T03:01:43.153Z,99974.25
2023-04-15T03:04:10.646Z,99979.06
2023-04-15T03:06:37.973Z,99993.47
2023-04-15T03:09:05.595Z,99999.78
2023-04-15T03:11:37.070Z,99994.91
2023-04-15T03:14:04.886Z,100002.88
2023-04-15T03:16:36.048Z,100000.59
2023-04-15T03:19:03.527Z,100002.69
2023-04-15T03:21:34.039Z,100010.28
2023-04-15T03:24:01.630Z,100027.69
2023-04-15T03:26:31.030Z,100014.31
2023-04-15T03:29:02.168Z,100022.59
2023-04-15T03:31:30.150Z,100025.44
2023-04-15T03:33:57.398Z,100034.03
2023-04-15T03:36:24.646Z,100029.50
2023-04-15T03:38:51.829Z,100034.66
2023-04-15T03:41:19.129Z,100027.06
2023-04-15T03:43:46.418Z,100034.03
2023-04-15T03:46:13.698Z,100040.66
2023-04-15T03:48:41.505Z,100044.34
2023-04-15T03:51:08.824Z,100047.84
2023-04-15T03:53:36.381Z,100055.22
2023-04-15T03:56:03.668Z,100050.97
2023-04-15T03:58:30.893Z,100069.91
2023-04-15T04:00:58.154Z,100059.88
2023-04-15T04:03:25.731Z,100050.34
2023-04-15T04:05:53.626Z,100066.84
2023-04-15T04:08:21.749Z,100066.31
2023-04-15T04:10:48.981Z,100074.81
2023-04-15T04:13:16.392Z,100070.38
2023-04-15T04:15:43.870Z,100069.44
2023-04-15T04:18:11.352Z,100068.81
2023-04-15T04:20:38.871Z,100061.00
2023-04-15T04:23:06.595Z,100069.88
2023-04-15T04:25:34.417Z,100072.47
2023-04-15T04:28:01.757Z,100075.69
2023-04-15T04:30:29.455Z,100082.25
2023-04-15T04:32:56.830Z,100086.97
2023-04-15T04:35:24.151Z,100088.53
2023-04-15T04:37:52.492Z,100098.19
2023-04-15T04:40:19.801Z,100092.00
2023-04-15T04:42:47.625Z,100099.00
2023-04-15T04:45:15.170Z,100101.00
2023-04-15T04:47:42.752Z,100109.09
2023-04-15T04:50:10.630Z,100111.53
2023-04-15T04:52:38.332Z,100109.38
2023-04-15T04:55:06.541Z,100116.91
2023-04-15T04:57:35.914Z,100124.94
2023-04-15T05:00:05.018Z,100123.53
2023-04-15T05:02:32.851Z,100131.84
2023-04-15T05:05:00.355Z,100132.47
2023-04-15T05:07:27.601Z,100143.09
2023-04-15T05:09:54.971Z,100143.53
2023-04-15T05:12:22.404Z,100150.38
2023-04-15T05:14:49.725Z,100152.19
2023-04-15T05:17:17.368Z,100157.84
2023-04-15T05:19:44.673Z,100168.47
2023-04-15T05:22:11.984Z,100168.41
2023-04-15T05:24:39.283Z,100177.63
2023-04-15T05:27:08.506Z,100182.25
2023-04-15T05:29:36.101Z,100186.44
2023-04-15T05:32:03.320Z,100212.97
2023-04-15T05:34:30.653Z,100198.25
2023-04-15T05:36:57.921Z,100210.28
2023-04-15T05:39:25.249Z,100207.53
2023-04-15T05:41:52.636Z,100219.91
2023-04-15T05:44:20.025Z,100214.91
2023-04-15T05:46:47.362Z,100217.66
2023-04-15T05:49:14.616Z,100234.75
2023-04-15T05:51:42.241Z,100230.00
2023-04-15T05:54:09.687Z,100236.81
2023-04-15T05:56:37.030Z,100251.91
2023-04-15T05:59:04.292Z,100248.66
2023-04-15T06:01:31.606Z,100274.38
2023-04-15T06:03:59.136Z,100262.81
2023-04-15T06:06:27.276Z,100257.53
2023-04-15T06:08:55.929Z,100261.91
2023-04-15T06:11:23.299Z,100290.84
2023-04-15T06:13:50.648Z,100290.00
2023-04-15T06:16:18.007Z,100293.25
2023-04-15T06:18:45.867Z,100310.56
2023-04-15T06:21:13.205Z,100314.56
2023-04-15T06:23:41.416Z,100328.66
2023-04-15T06:26:08.667Z,100325.19
2023-04-15T06:28:36.128Z,100336.59
2023-04-15T06:31:03.589Z,100343.09
2023-04-15T06:33:31.831Z,100322.81
2023-04-15T06:35:59.164Z,100353.03
2023-04-15T06:38:26.484Z,100353.25
2023-04-15T06:40:53.847Z,100354.94
2023-04-15T06:43:21.045Z,100370.13
2023-04-15T06:45:48.356Z,100366.84
2023-04-15T06:48:15.766Z,100369.78
2023-04-15T06:50:43.101Z,100386.38
2023-04-15T06:53:10.329Z,100389.91
2023-04-15T06:55:37.689Z,100392.06
2023-04-15T06:58:05.047Z,100402.00
2023-04-15T07:00:33.748Z,100400.72
2023-04-15T07:03:03.749Z,100413.09
2023-04-15T07:05:32.402Z,100404.66
2023-04-15T07:08:00.414Z,100410.47
2023-04-15T07:10:27.780Z,100415.31
2023-04-15T07:12:55.101Z,100423.75
2023-04-15T07:15:22.549Z,100423.69
2023-04-15T07:17:50.126Z,100449.19
2023-04-15T07:20:17.567Z,100434.53
2023-04-15T07:22:44.999Z,100441.25
2023-04-15T07:25:12.450Z,100454.44
2023-04-15T07:27:39.721Z,100449.69
2023-04-15T07:30:07.559Z,100449.06
2023-04-15T07:32:35.254Z,100464.91
2023-04-15T07:35:03.780Z,100460.06
2023-04-15T07:37:31.017Z,100472.97
2023-04-15T07:39:58.267Z,100474.09
2023-04-15T07:42:25.640Z,100488.84
2023-04-15T07:44:52.987Z,100481.59
2023-04-15T07:47:20.332Z,100486.50
2023-04-15T07:49:47.853Z,100512.44
2023-04-15T07:52:15.166Z,100507.97
2023-04-15T07:54:42.445Z,100512.31
2023-04-15T07:57:09.809Z,100512.13
2023-04-15T07:59:37.124Z,100536.41
2023-04-15T08:02:04.634Z,100536.13
2023-04-15T08:04:33.627Z,100529.50
2023-04-15T08:07:01.147Z,100538.34
2023-04-15T08:09:28.630Z,100535.19
2023-04-15T08:11:57.087Z,100542.63
2023-04-15T08:14:24.787Z,100547.06
2023-04-15T08:16:52.512Z,100556.78
2023-04-15T08:19:19.942Z,100554.91
2023-04-15T08:21:47.198Z,100568.97
2023-04-15T08:24:14.480Z,100576.91
2023-04-15T08:26:42.169Z,100586.34
2023-04-15T08:29:09.466Z,100590.03
2023-04-15T08:31:36.731Z,100592.44
2023-04-15T08:34:04.082Z,100592.66
2023-04-15T08:36:32.453Z,100609.22
2023-04-15T08:39:01.592Z,100603.22
2023-04-15T08:41:35.865Z,100607.00
2023-04-15T08:44:05.163Z,100620.94
2023-04-15T08:46:34.866Z,100625.97
2023-04-15T08:49:04.609Z,100623.88
2023-04-15T08:51:32.807Z,100626.84
2023-04-15T08:54:01.551Z,100640.56
2023-04-15T08:56:33.134Z,100637.50
2023-04-15T08:59:01.090Z,100652.69
2023-04-15T09:01:28.998Z,100641.94
2023-04-15T09:03:57.265Z,100655.00
2023-04-15T09:06:25.711Z,100657.75
2023-04-15T09:08:53.081Z,100664.66
2023-04-15T09:11:22.343Z,100674.41
2023-04-15T09:13:49.770Z,100678.13
2023-04-15T09:16:17.254Z,100682.88
2023-04-15T09:18:44.724Z,100681.66
2023-04-15T09:21:14.140Z,100701.03
2023-04-15T09:23:54.943Z,100706.84
2023-04-15T09:26:37.043Z,100708.56
2023-04-15T09:29:13.530Z,100710.00
2023-04-15T09:31:41.684Z,100722.94
2023-04-15T09:34:09.172Z,100730.25
2023-04-15T09:37:00.072Z,100752.78
2023-04-15T09:39:27.642Z,100741.06
2023-04-15T09:42:07.769Z,100743.81
2023-04-15T09:44:35.587Z,100756.25
2023-04-15T09:47:05.596Z,100755.41
2023-04-15T09:49:35.423Z,100763.34
2023-04-15T09:52:05.992Z,100772.84
2023-04-15T09:54:36.321Z,100770.66
2023-04-15T09:57:10.314Z,100783.53
2023-04-15T09:59:37.866Z,100788.41
2023-04-15T10:02:08.823Z,100784.66
2023-04-15T10:04:40.864Z,100787.81
2023-04-15T10:07:12.377Z,100798.47
2023-04-15T10:09:39.894Z,100796.31
2023-04-15T10:12:07.391Z,100792.31
2023-04-15T10:14:35.784Z,100803.63
2023-04-15T10:17:05.074Z,100809.91
2023-04-15T10:19:34.545Z,100828.41
2023-04-15T10:22:02.253Z,100822.50
2023-04-15T10:24:32.376Z,100826.56
2023-04-15T10:27:00.623Z,100819.31
2023-04-15T10:29:28.470Z,100831.16
2023-04-15T10:31:56.499Z,100837.56
2023-04-15T10:34:24.876Z,100838.28
2023-04-15T10:36:56.588Z,100848.63
2023-04-15T10:39:33.310Z,100838.63
2023-04-15T10:42:15.494Z,100845.72
2023-04-15T10:44:54.002Z,100854.16
2023-04-15T10:47:22.401Z,100853.94
2023-04-15T10:50:00.843Z,100846.09
2023-04-15T10:52:29.540Z,100858.00
2023-04-15T10:55:06.220Z,100861.22
2023-04-15T10:57:39.425Z,100872.56
2023-04-15T11:00:17.146Z,100862.75
2023-04-15T11:03:07.379Z,100877.69
2023-04-15T11:05:52.446Z,100883.22
2023-04-15T11:08:20.988Z,100887.06
2023-04-15T11:10:48.459Z,100887.50
2023-04-15T11:13:18.474Z,100896.66
2023-04-15T11:15:47.347Z,100908.84
2023-04-15T11:18:16.483Z,100903.66
2023-04-15T11:20:45.367Z,100904.75
2023-04-15T11:23:14.745Z,100914.03
2023-04-15T11:25:44.515Z,100904.94
2023-04-15T11:28:13.162Z,100911.03
2023-04-15T11:30:41.383Z,100910.38
2023-04-15T11:33:10.459Z,100909.25
2023-04-15T11:35:38.160Z,100919.19
2023-04-15T11:38:06.284Z,100924.66
2023-04-15T11:40:33.794Z,100929.81
2023-04-15T11:43:21.634Z,100937.44
2023-04-15T11:46:09.220Z,100944.94
2023-04-15T11:48:36.856Z,100952.72
2023-04-15T11:51:06.046Z,100955.53
2023-04-15T11:53:50.520Z,100962.25
2023-04-15T11:56:26.266Z,100978.44
2023-04-15T11:58:57.126Z,100966.69
2023-04-15T12:01:36.362Z,100965.25
2023-04-15T12:04:14.904Z,100972.09
2023-04-15T12:06:42.458Z,100972.50
2023-04-15T12:09:12.378Z,100971.75
2023-04-15T12:11:41.070Z,100990.13
2023-04-15T12:14:32.758Z,100987.16
2023-04-15T12:17:03.037Z,100991.53
2023-04-15T12:19:32.551Z,100998.31
2023-04-15T12:22:09.147Z,101002.16
2023-04-15T12:24:37.829Z,101003.25
2023-04-15T12:27:09.506Z,101019.06
2023-04-15T12:29:38.780Z,101021.91
2023-04-15T12:32:06.122Z,101017.81
2023-04-15T12:34:53.497Z,101026.44
2023-04-15T12:37:21.048Z,101032.34
2023-04-15T12:39:49.872Z,101034.00
2023-04-15T12:42:37.942Z,101036.53
2023-04-15T12:45:05.825Z,101035.88
2023-04-15T12:47:33.672Z,101044.41
2023-04-15T12:50:01.657Z,101050.50
2023-04-15T12:52:28.904Z,101049.94
2023-04-15T12:54:56.311Z,101072.00
2023-04-15T12:57:23.581Z,101067.09
2023-04-15T12:59:51.217Z,101072.66
2023-04-15T13:02:18.840Z,101082.25
2023-04-15T13:04:46.709Z,101096.13
2023-04-15T13:07:15.793Z,101088.50
2023-04-15T13:09:44.106Z,101089.84
2023-04-15T13:12:13.820Z,101089.34
2023-04-15T13:14:41.482Z,101121.81
2023-04-15T13:17:10.298Z,101105.22
2023-04-15T13:19:38.890Z,101114.25
2023-04-15T13:22:07.019Z,101124.53
2023-04-15T13:24:34.318Z,101129.34
2023-04-15T13:27:01.673Z,101117.84
2023-04-15T13:29:29.012Z,101136.72
2023-04-15T13:31:56.793Z,101137.94
2023-04-15T13:34:24.365Z,101144.22
2023-04-15T13:36:51.604Z,101156.81
2023-04-15T13:39:19.136Z,101149.19
2023-04-15T13:41:46.405Z,101159.59
2023-04-15T13:44:16.699Z,101163.69
2023-04-15T13:46:44.312Z,101171.03
2023-04-15T13:49:11.724Z,101181.53
2023-04-15T13:51:40.529Z,101191.75
2023-04-15T13:54:08.173Z,101197.78
2023-04-15T13:56:35.969Z,101193.59
2023-04-15T13:59:03.452Z,101183.41
2023-04-15T14:01:31.554Z,101198.00
2023-04-15T14:03:59.160Z,101204.13
2023-04-15T14:06:27.993Z,101199.31
2023-04-15T14:08:55.630Z,101199.94
2023-04-15T14:11:23.624Z,101193.38
2023-04-15T14:13:51.005Z,101194.50
2023-04-15T14:16:18.430Z,101196.88
2023-04-15T14:18:45.981Z,101213.09
2023-04-15T14:21:13.360Z,101216.38
2023-04-15T14:23:41.114Z,101220.38
2023-04-15T14:26:15.477Z,101222.72
2023-04-15T14:28:46.023Z,101221.31
2023-04-15T14:31:14.280Z,101226.31
2023-04-15T14:33:41.804Z,101226.25
2023-04-15T14:36:10.404Z,101237.41
2023-04-15T14:38:41.172Z,101232.00
2023-04-15T14:41:10.154Z,101241.09
2023-04-15T14:43:38.955Z,101249.16
2023-04-15T14:46:06.812Z,101245.06
2023-04-15T14:48:34.245Z,101252.59
2023-04-15T14:51:01.624Z,101247.22
2023-04-15T14:53:28.975Z,101247.75
2023-04-15T14:55:56.414Z,101238.44
2023-04-15T14:58:23.748Z,101246.00
2023-04-15T15:00:51.109Z,101251.91
2023-04-15T15:03:18.756Z,101255.59
2023-04-15T15:05:47.302Z,101247.06
2023-04-15T15:08:14.917Z,101255.56
2023-04-15T15:10:49.453Z,101257.75
2023-04-15T15:13:17.907Z,101258.13
2023-04-15T15:15:45.516Z,101258.91
2023-04-15T15:18:13.144Z,101263.03
2023-04-15T15:20:40.453Z,101282.88
2023-04-15T15:23:07.742Z,101276.19
2023-04-15T15:25:34.994Z,101272.28
2023-04-15T15:28:02.298Z,101280.97
2023-04-15T15:30:30.526Z,101284.31
2023-04-15T15:32:57.915Z,101298.00
2023-04-15T15:35:26.063Z,101279.16
2023-04-15T15:37:53.286Z,101283.13
2023-04-15T15:40:21.955Z,101287.66
2023-04-15T15:42:49.957Z,101280.72
2023-04-15T15:45:20.105Z,101291.44
2023-04-15T15:47:48.425Z,101277.00
2023-04-15T15:50:16.054Z,101288.59
2023-04-15T15:52:43.522Z,101305.25
2023-04-15T15:55:10.964Z,101301.75
2023-04-15T15:57:38.292Z,101313.91
2023-04-15T16:00:12.056Z,101294.69
2023-04-15T16:05:11.214Z,101299.84
2023-04-15T16:07:38.557Z,101298.53
2023-04-15T16:10:06.655Z,101304.69
2023-04-15T16:12:35.037Z,101331.22
2023-04-15T16:15:03.009Z,101324.34
2023-04-15T16:17:30.551Z,101324.53
2023-04-15T16:20:00.699Z,101329.88
2023-04-15T16:22:28.596Z,101348.06
2023-04-15T16:24:55.873Z,101335.16
2023-04-15T16:27:23.235Z,101333.03
2023-04-15T16:29:50.610Z,101332.09
2023-04-15T16:32:18.203Z,101345.66
2023-04-15T16:34:45.800Z,101337.47
2023-04-15T16:37:13.110Z,101342.50
2023-04-15T16:39:40.866Z,101345.75
2023-04-15T16:42:08.280Z,101359.25
2023-04-15T16:44:35.522Z,101355.00
2023-04-15T16:47:03.163Z,101354.56
2023-04-15T16:49:30.655Z,101354.34
2023-04-15T16:51:58.367Z,101360.91
2023-04-15T16:54:25.708Z,101362.34
2023-04-15T16:56:52.947Z,101368.09
2023-04-15T16:59:20.378Z,101361.00
2023-04-15T17:01:47.897Z,101370.31
2023-04-15T17:04:15.260Z,101361.75
2023-04-15T17:06:42.993Z,101375.78
2023-04-15T17:09:10.378Z,101372.75
2023-04-15T17:11:40.390Z,101386.31
2023-04-15T17:14:07.784Z,101379.69
2023-04-15T17:16:35.993Z,101371.84
2023-04-15T17:19:03.763Z,101377.50
2023-04-15T17:21:31.941Z,101383.63
2023-04-15T17:23:59.339Z,101394.28
2023-04-15T17:26:26.680Z,101399.00
2023-04-15T17:28:53.953Z,101393.34
2023-04-15T17:31:21.405Z,101406.78
2023-04-15T17:34:00.137Z,101406.69
2023-04-15T17:36:34.045Z,101410.06
2023-04-15T17:39:01.429Z,101411.19
2023-04-15T17:41:28.742Z,101421.00
2023-04-15T17:43:56.037Z,101427.63
2023-04-15T17:46:23.486Z,101419.63
2023-04-15T17:48:50.753Z,101418.25
2023-04-15T17:51:18.125Z,101431.50
2023-04-15T17:53:45.489Z,101430.94
2023-04-15T17:56:12.937Z,101430.88
2023-04-15T17:58:40.332Z,101426.84
2023-04-15T18:01:07.785Z,101435.75
2023-04-15T18:03:35.110Z,101437.72
2023-04-15T18:06:02.551Z,101450.94
2023-04-15T18:08:29.913Z,101444.13
2023-04-15T18:10:57.481Z,101451.81
2023-04-15T18:13:25.071Z,101458.66
2023-04-15T18:15:52.425Z,101458.78
2023-04-15T18:18:19.722Z,101462.66
2023-04-15T18:20:47.018Z,101458.78
2023-04-15T18:23:14.613Z,101469.00
2023-04-15T18:25:43.588Z,101466.13
2023-04-15T18:28:12.218Z,101465.69
2023-04-15T18:30:39.774Z,101480.56
2023-04-15T18:33:07.077Z,101478.75
2023-04-15T18:35:35.145Z,101487.88
2023-04-15T18:38:02.797Z,101488.97
2023-04-15T18:40:30.323Z,101491.34
2023-04-15T18:42:58.954Z,101489.81
2023-04-15T18:45:26.501Z,101506.91
2023-04-15T18:47:54.005Z,101491.63
2023-04-15T18:50:21.278Z,101505.16
2023-04-15T18:52:48.747Z,101513.47
2023-04-15T18:55:17.749Z,101518.13
2023-04-15T18:57:46.756Z,101520.19
2023-04-15T19:00:17.940Z,101529.75
2023-04-15T19:02:45.558Z,101536.38
2023-04-15T19:05:13.105Z,101534.72
2023-04-15T19:07:41.666Z,101550.94
2023-04-15T19:10:09.284Z,101551.50
2023-04-15T19:12:37.055Z,101556.97
2023-04-15T19:15:04.835Z,101558.69
2023-04-15T19:17:32.473Z,101558.19
2023-04-15T19:19:59.876Z,101573.44
2023-04-15T19:22:28.757Z,101568.59
2023-04-15T19:24:56.389Z,101574.25
2023-04-15T19:27:23.947Z,101570.16
2023-04-15T19:29:51.215Z,101583.66
2023-04-15T19:32:18.746Z,101588.34
2023-04-15T19:34:46.504Z,101597.09
2023-04-15T19:37:14.778Z,101602.94
2023-04-15T19:39:42.151Z,101594.84
2023-04-15T19:42:09.401Z,101599.16
2023-04-15T19:44:37.340Z,101603.00
2023-04-15T19:47:04.707Z,101616.84
2023-04-15T19:49:32.066Z,101622.31
2023-04-15T19:51:59.258Z,101622.47
2023-04-15T19:54:26.570Z,101620.47
2023-04-15T19:56:53.836Z,101627.63
2023-04-15T19:59:21.042Z,101628.56
2023-04-15T20:01:48.686Z,101627.25
2023-04-15T20:04:16.167Z,101634.19
2023-04-15T20:06:43.503Z,101627.88
2023-04-15T20:09:11.537Z,101634.25
2023-04-15T20:12:47.008Z,101643.34
2023-04-15T20:14:26.586Z,101644.28
2023-04-15T20:16:53.969Z,101655.16
2023-04-15T20:19:21.280Z,101649.50
2023-04-15T20:21:49.771Z,101662.03
2023-04-15T20:24:19.887Z,101655.41
2023-04-15T20:26:47.330Z,101659.28
2023-04-15T20:29:14.789Z,101665.03
2023-04-15T20:31:42.151Z,101659.56
2023-04-15T20:34:11.387Z,101674.31
2023-04-15T20:36:39.554Z,101672.03
2023-04-15T20:39:07.149Z,101676.13
2023-04-15T20:41:34.893Z,101688.25
2023-04-15T20:44:02.183Z,101685.88
2023-04-15T20:46:29.527Z,101687.69
2023-04-15T20:48:56.982Z,101692.44
2023-04-15T20:51:24.318Z,101689.25
2023-04-15T20:53:51.898Z,101697.16
2023-04-15T20:56:20.463Z,101696.63
2023-04-15T20:58:47.778Z,101707.47
2023-04-15T21:01:15.211Z,101710.56
2023-04-15T21:03:42.865Z,101714.06
2023-04-15T21:06:10.535Z,101702.06
2023-04-15T21:08:37.883Z,101702.66
2023-04-15T21:11:05.207Z,101711.41
2023-04-15T21:13:33.699Z,101719.19
2023-04-15T21:16:00.969Z,101723.03
2023-04-15T21:18:28.379Z,101730.22
2023-04-15T21:21:01.640Z,101739.16
2023-04-15T21:23:29.891Z,101732.94
2023-04-15T21:25:58.844Z,101734.06
2023-04-15T21:28:28.034Z,101742.47
2023-04-15T21:30:59.234Z,101754.97
2023-04-15T21:33:27.124Z,101745.75
2023-04-15T21:35:54.719Z,101755.44
2023-04-15T21:38:23.368Z,101755.47
2023-04-15T21:40:50.923Z,101753.72
2023-04-15T21:43:18.238Z,101756.81
2023-04-15T21:46:20.677Z,101763.25
2023-04-15T21:48:33.007Z,101759.84
2023-04-15T21:51:01.741Z,101766.31
2023-04-15T21:53:29.158Z,101773.28
2023-04-15T21:55:56.506Z,101774.94
2023-04-15T21:58:23.852Z,101779.06
2023-04-15T22:00:57.379Z,101778.78
2023-04-15T22:03:25.018Z,101789.47
2023-04-15T22:05:52.588Z,101785.19
2023-04-15T22:08:21.166Z,101784.03
2023-04-15T22:10:48.439Z,101784.66
2023-04-15T22:13:16.504Z,101787.88
2023-04-15T22:15:43.792Z,101793.75
2023-04-15T22:18:12.567Z,101800.72
2023-04-15T22:20:40.115Z,101803.47
2023-04-15T22:23:10.319Z,101805.38
2023-04-15T22:25:37.557Z,101809.22
2023-04-15T22:28:09.548Z,101813.03
2023-04-15T22:30:41.086Z,101811.69
2023-04-15T22:33:09.424Z,101814.91
2023-04-15T22:35:37.447Z,101816.84
2023-04-15T22:38:06.398Z,101827.09
2023-04-15T22:40:33.950Z,101823.06
2023-04-15T22:43:01.699Z,101828.00
2023-04-15T22:45:29.096Z,101842.53
2023-04-15T22:47:56.397Z,101829.34
2023-04-15T22:50:23.769Z,101829.41
2023-04-15T22:52:51.222Z,101848.38
2023-04-15T22:55:18.582Z,101850.00
2023-04-15T22:57:45.961Z,101846.41
2023-04-15T23:00:13.409Z,101859.00
2023-04-15T23:02:40.824Z,101858.50
2023-04-15T23:05:12.432Z,101855.75
2023-04-15T23:07:40.658Z,101862.41
2023-04-15T23:10:08.506Z,101864.03
2023-04-15T23:12:35.989Z,101862.13
2023-04-15T23:15:03.840Z,101865.41
2023-04-15T23:17:31.333Z,101864.00
2023-04-15T23:19:58.576Z,101857.44
2023-04-15T23:22:26.122Z,101856.56
2023-04-15T23:24:53.327Z,101863.09
2023-04-15T23:27:20.939Z,101862.94
2023-04-15T23:29:48.242Z,101854.63
2023-04-15T23:32:15.575Z,101861.25
2023-04-15T23:34:42.906Z,101861.84
2023-04-15T23:37:10.491Z,101864.34
2023-04-15T23:39:37.783Z,101860.13
2023-04-15T23:42:05.140Z,101867.06
2023-04-15T23:44:32.354Z,101870.13
2023-04-15T23:46:59.655Z,101876.16
2023-04-15T23:49:26.859Z,101874.50
2023-04-15T23:51:54.006Z,101873.97
2023-04-15T23:54:21.330Z,101878.34
2023-04-15T23:56:48.569Z,101876.41
2023-04-15T23:59:15.810Z,101876.69
